sensor_id;sensor_type;location;lat;lon;timestamp;temperature;humidity
7658;DHT22;8462;53.156;8.220;2023-07-29T00:01:36;21.40;99.90
7658;DHT22;8462;53.156;8.220;2023-07-29T00:04:04;21.40;99.90
7658;DHT22;8462;53.156;8.220;2023-07-29T00:08:58;21.30;99.90
7658;DHT22;8462;53.156;8.220;2023-07-29T00:11:25;21.30;99.90
7658;DHT22;8462;53.156;8.220;2023-07-29T00:13:52;21.30;99.90
7658;DHT22;8462;53.156;8.220;2023-07-29T00:16:18;21.20;99.90
7658;DHT22;8462;53.156;8.220;2023-07-29T00:18:47;21.20;99.90
7658;DHT22;8462;53.156;8.220;2023-07-29T00:21:15;21.10;99.90
7658;DHT22;8462;53.156;8.220;2023-07-29T00:23:42;21.00;99.90
7658;DHT22;8462;53.156;8.220;2023-07-29T00:26:09;21.00;99.90
7658;DHT22;8462;53.156;8.220;2023-07-29T00:28:36;20.90;99.90
7658;DHT22;8462;53.156;8.220;2023-07-29T00:31:04;20.90;99.90
7658;DHT22;8462;53.156;8.220;2023-07-29T00:33:33;20.80;99.90
7658;DHT22;8462;53.156;8.220;2023-07-29T00:36:00;20.80;99.90
7658;DHT22;8462;53.156;8.220;2023-07-29T00:38:29;20.80;99.90
7658;DHT22;8462;53.156;8.220;2023-07-29T00:40:57;20.80;99.90
7658;DHT22;8462;53.156;8.220;2023-07-29T00:43:24;20.70;99.90
7658;DHT22;8462;53.156;8.220;2023-07-29T00:45:51;20.80;99.90
7658;DHT22;8462;53.156;8.220;2023-07-29T00:48:20;20.70;99.90
7658;DHT22;8462;53.156;8.220;2023-07-29T00:50:47;20.60;99.90
7658;DHT22;8462;53.156;8.220;2023-07-29T00:53:14;20.50;99.90
7658;DHT22;8462;53.156;8.220;2023-07-29T00:55:42;20.50;99.90
7658;DHT22;8462;53.156;8.220;2023-07-29T00:58:10;20.50;99.90
7658;DHT22;8462;53.156;8.220;2023-07-29T01:00:37;20.50;99.90
7658;DHT22;8462;53.156;8.220;2023-07-29T01:03:04;20.40;99.90
7658;DHT22;8462;53.156;8.220;2023-07-29T01:05:36;20.40;99.90
7658;DHT22;8462;53.156;8.220;2023-07-29T01:08:10;20.30;99.90
7658;DHT22;8462;53.156;8.220;2023-07-29T01:10:46;20.30;99.90
7658;DHT22;8462;53.156;8.220;2023-07-29T01:13:19;20.30;99.90
7658;DHT22;8462;53.156;8.220;2023-07-29T01:15:52;20.30;99.90
7658;DHT22;8462;53.156;8.220;2023-07-29T01:18:23;20.30;99.90
7658;DHT22;8462;53.156;8.220;2023-07-29T01:20:53;20.20;99.90
7658;DHT22;8462;53.156;8.220;2023-07-29T01:23:26;20.20;99.90
7658;DHT22;8462;53.156;8.220;2023-07-29T01:25:55;20.20;99.90
7658;DHT22;8462;53.156;8.220;2023-07-29T01:28:22;20.10;99.90
7658;DHT22;8462;53.156;8.220;2023-07-29T01:30:55;20.20;99.90
7658;DHT22;8462;53.156;8.220;2023-07-29T01:33:26;20.20;99.90
7658;DHT22;8462;53.156;8.220;2023-07-29T01:35:58;20.10;99.90
7658;DHT22;8462;53.156;8.220;2023-07-29T01:38:32;20.20;99.90
7658;DHT22;8462;53.156;8.220;2023-07-29T01:41:01;20.10;99.90
7658;DHT22;8462;53.156;8.220;2023-07-29T01:43:29;20.10;99.90
7658;DHT22;8462;53.156;8.220;2023-07-29T01:45:56;20.10;99.90
7658;DHT22;8462;53.156;8.220;2023-07-29T01:48:23;20.10;99.90
7658;DHT22;8462;53.156;8.220;2023-07-29T01:50:50;20.10;99.90
7658;DHT22;8462;53.156;8.220;2023-07-29T01:53:17;20.10;99.90
7658;DHT22;8462;53.156;8.220;2023-07-29T01:55:45;20.10;99.90
7658;DHT22;8462;53.156;8.220;2023-07-29T01:58:12;20.10;99.90
7658;DHT22;8462;53.156;8.220;2023-07-29T02:00:40;20.10;99.90
7658;DHT22;8462;53.156;8.220;2023-07-29T02:03:07;20.10;99.90
7658;DHT22;8462;53.156;8.220;2023-07-29T02:05:33;20.10;99.90
7658;DHT22;8462;53.156;8.220;2023-07-29T02:08:04;20.10;99.90
7658;DHT22;8462;53.156;8.220;2023-07-29T02:10:31;20.00;99.90
7658;DHT22;8462;53.156;8.220;2023-07-29T02:13:01;20.00;99.90
7658;DHT22;8462;53.156;8.220;2023-07-29T02:15:28;20.00;99.90
7658;DHT22;8462;53.156;8.220;2023-07-29T02:17:55;20.00;99.90
7658;DHT22;8462;53.156;8.220;2023-07-29T02:20:22;19.90;99.90
7658;DHT22;8462;53.156;8.220;2023-07-29T02:22:50;19.90;99.90
7658;DHT22;8462;53.156;8.220;2023-07-29T02:25:17;19.90;99.90
7658;DHT22;8462;53.156;8.220;2023-07-29T02:27:44;19.90;99.90
7658;DHT22;8462;53.156;8.220;2023-07-29T02:30:12;19.90;99.90
7658;DHT22;8462;53.156;8.220;2023-07-29T02:32:39;20.00;99.90
7658;DHT22;8462;53.156;8.220;2023-07-29T02:35:06;20.00;99.90
7658;DHT22;8462;53.156;8.220;2023-07-29T02:37:33;20.10;99.90
7658;DHT22;8462;53.156;8.220;2023-07-29T02:40:00;20.10;99.90
7658;DHT22;8462;53.156;8.220;2023-07-29T02:42:28;20.10;99.90
7658;DHT22;8462;53.156;8.220;2023-07-29T02:44:56;20.20;99.90
7658;DHT22;8462;53.156;8.220;2023-07-29T02:47:24;20.20;99.90
7658;DHT22;8462;53.156;8.220;2023-07-29T02:49:51;20.30;99.90
7658;DHT22;8462;53.156;8.220;2023-07-29T02:52:18;20.30;99.90
7658;DHT22;8462;53.156;8.220;2023-07-29T02:54:45;20.30;99.90
7658;DHT22;8462;53.156;8.220;2023-07-29T02:57:13;20.30;99.90
7658;DHT22;8462;53.156;8.220;2023-07-29T02:59:40;20.30;99.90
7658;DHT22;8462;53.156;8.220;2023-07-29T03:02:07;20.30;99.90
7658;DHT22;8462;53.156;8.220;2023-07-29T03:04:35;20.40;99.90
7658;DHT22;8462;53.156;8.220;2023-07-29T03:07:03;20.40;99.90
7658;DHT22;8462;53.156;8.220;2023-07-29T03:09:30;20.40;99.90
7658;DHT22;8462;53.156;8.220;2023-07-29T03:11:58;20.40;99.90
7658;DHT22;8462;53.156;8.220;2023-07-29T03:14:26;20.40;99.90
7658;DHT22;8462;53.156;8.220;2023-07-29T03:16:53;20.40;99.90
7658;DHT22;8462;53.156;8.220;2023-07-29T03:19:20;20.40;99.90
7658;DHT22;8462;53.156;8.220;2023-07-29T03:21:49;20.50;99.90
7658;DHT22;8462;53.156;8.220;2023-07-29T03:24:16;20.50;99.90
7658;DHT22;8462;53.156;8.220;2023-07-29T03:26:43;20.50;99.90
7658;DHT22;8462;53.156;8.220;2023-07-29T03:29:10;20.50;99.90
7658;DHT22;8462;53.156;8.220;2023-07-29T03:31:36;20.50;99.90
7658;DHT22;8462;53.156;8.220;2023-07-29T03:34:05;20.50;99.90
7658;DHT22;8462;53.156;8.220;2023-07-29T03:36:32;20.50;99.90
7658;DHT22;8462;53.156;8.220;2023-07-29T03:39:00;20.50;99.90
7658;DHT22;8462;53.156;8.220;2023-07-29T03:41:29;20.50;99.90
7658;DHT22;8462;53.156;8.220;2023-07-29T03:43:56;20.60;99.90
7658;DHT22;8462;53.156;8.220;2023-07-29T03:46:23;20.50;99.90
7658;DHT22;8462;53.156;8.220;2023-07-29T03:48:50;20.60;99.90
7658;DHT22;8462;53.156;8.220;2023-07-29T03:51:17;20.60;99.90
7658;DHT22;8462;53.156;8.220;2023-07-29T03:53:44;20.70;99.90
7658;DHT22;8462;53.156;8.220;2023-07-29T03:56:12;20.70;99.90
7658;DHT22;8462;53.156;8.220;2023-07-29T03:58:39;20.70;99.90
7658;DHT22;8462;53.156;8.220;2023-07-29T04:01:06;20.70;99.90
7658;DHT22;8462;53.156;8.220;2023-07-29T04:03:33;20.70;99.90
7658;DHT22;8462;53.156;8.220;2023-07-29T04:06:00;20.70;99.90
7658;DHT22;8462;53.156;8.220;2023-07-29T04:08:27;20.70;99.90
7658;DHT22;8462;53.156;8.220;2023-07-29T04:10:54;20.70;99.90
7658;DHT22;8462;53.156;8.220;2023-07-29T04:13:23;20.70;99.90
7658;DHT22;8462;53.156;8.220;2023-07-29T04:15:50;20.60;99.90
7658;DHT22;8462;53.156;8.220;2023-07-29T04:18:17;20.70;99.90
7658;DHT22;8462;53.156;8.220;2023-07-29T04:20:44;20.60;99.90
7658;DHT22;8462;53.156;8.220;2023-07-29T04:23:11;20.70;99.90
7658;DHT22;8462;53.156;8.220;2023-07-29T04:25:38;20.70;99.90
7658;DHT22;8462;53.156;8.220;2023-07-29T04:28:05;20.70;99.90
7658;DHT22;8462;53.156;8.220;2023-07-29T04:30:33;20.70;99.90
7658;DHT22;8462;53.156;8.220;2023-07-29T04:33:00;20.80;99.90
7658;DHT22;8462;53.156;8.220;2023-07-29T04:35:27;20.80;99.90
7658;DHT22;8462;53.156;8.220;2023-07-29T04:37:54;20.90;99.90
7658;DHT22;8462;53.156;8.220;2023-07-29T04:40:21;20.90;99.90
7658;DHT22;8462;53.156;8.220;2023-07-29T04:42:49;20.90;99.90
7658;DHT22;8462;53.156;8.220;2023-07-29T04:45:16;21.00;99.90
7658;DHT22;8462;53.156;8.220;2023-07-29T04:47:44;20.90;99.90
7658;DHT22;8462;53.156;8.220;2023-07-29T04:50:11;21.00;99.90
7658;DHT22;8462;53.156;8.220;2023-07-29T04:52:38;21.00;99.90
7658;DHT22;8462;53.156;8.220;2023-07-29T04:55:05;21.00;99.90
7658;DHT22;8462;53.156;8.220;2023-07-29T04:57:33;21.10;99.90
7658;DHT22;8462;53.156;8.220;2023-07-29T05:00:00;21.10;99.90
7658;DHT22;8462;53.156;8.220;2023-07-29T05:02:28;21.20;99.90
7658;DHT22;8462;53.156;8.220;2023-07-29T05:04:58;21.30;99.90
7658;DHT22;8462;53.156;8.220;2023-07-29T05:07:25;21.30;99.90
7658;DHT22;8462;53.156;8.220;2023-07-29T05:09:52;21.50;99.90
7658;DHT22;8462;53.156;8.220;2023-07-29T05:12:19;21.50;99.90
7658;DHT22;8462;53.156;8.220;2023-07-29T05:14:46;21.70;99.90
7658;DHT22;8462;53.156;8.220;2023-07-29T05:17:15;21.80;99.90
7658;DHT22;8462;53.156;8.220;2023-07-29T05:19:42;21.90;99.90
7658;DHT22;8462;53.156;8.220;2023-07-29T05:22:10;22.00;99.90
7658;DHT22;8462;53.156;8.220;2023-07-29T05:24:37;22.00;99.90
7658;DHT22;8462;53.156;8.220;2023-07-29T05:27:05;22.00;99.90
7658;DHT22;8462;53.156;8.220;2023-07-29T05:29:34;22.00;99.90
7658;DHT22;8462;53.156;8.220;2023-07-29T05:32:01;22.00;99.90
7658;DHT22;8462;53.156;8.220;2023-07-29T05:34:27;22.00;99.90
7658;DHT22;8462;53.156;8.220;2023-07-29T05:36:54;22.00;99.90
7658;DHT22;8462;53.156;8.220;2023-07-29T05:39:23;22.10;99.90
7658;DHT22;8462;53.156;8.220;2023-07-29T05:41:50;22.10;99.90
7658;DHT22;8462;53.156;8.220;2023-07-29T05:44:16;22.10;99.90
7658;DHT22;8462;53.156;8.220;2023-07-29T05:46:43;22.10;99.90
7658;DHT22;8462;53.156;8.220;2023-07-29T05:49:10;22.20;99.90
7658;DHT22;8462;53.156;8.220;2023-07-29T05:51:37;22.30;99.90
7658;DHT22;8462;53.156;8.220;2023-07-29T05:54:04;22.40;99.90
7658;DHT22;8462;53.156;8.220;2023-07-29T05:56:33;22.60;99.90
7658;DHT22;8462;53.156;8.220;2023-07-29T05:59:00;22.60;99.90
7658;DHT22;8462;53.156;8.220;2023-07-29T06:01:26;22.60;99.90
7658;DHT22;8462;53.156;8.220;2023-07-29T06:03:53;22.60;99.90
7658;DHT22;8462;53.156;8.220;2023-07-29T06:06:20;22.60;99.90
7658;DHT22;8462;53.156;8.220;2023-07-29T06:08:49;22.60;99.90
7658;DHT22;8462;53.156;8.220;2023-07-29T06:11:16;22.70;99.90
7658;DHT22;8462;53.156;8.220;2023-07-29T06:13:45;22.80;99.90
7658;DHT22;8462;53.156;8.220;2023-07-29T06:16:14;22.80;99.90
7658;DHT22;8462;53.156;8.220;2023-07-29T06:18:41;22.80;99.90
7658;DHT22;8462;53.156;8.220;2023-07-29T06:21:09;22.70;99.90
7658;DHT22;8462;53.156;8.220;2023-07-29T06:23:38;22.70;99.90
7658;DHT22;8462;53.156;8.220;2023-07-29T06:26:04;22.80;99.90
7658;DHT22;8462;53.156;8.220;2023-07-29T06:28:32;22.80;99.90
7658;DHT22;8462;53.156;8.220;2023-07-29T06:31:00;22.80;99.90
7658;DHT22;8462;53.156;8.220;2023-07-29T06:33:27;22.80;99.90
7658;DHT22;8462;53.156;8.220;2023-07-29T06:35:54;22.80;99.90
7658;DHT22;8462;53.156;8.220;2023-07-29T06:38:21;22.80;99.90
7658;DHT22;8462;53.156;8.220;2023-07-29T06:40:48;22.80;99.90
7658;DHT22;8462;53.156;8.220;2023-07-29T06:43:15;22.80;99.90
7658;DHT22;8462;53.156;8.220;2023-07-29T06:45:42;22.80;99.90
7658;DHT22;8462;53.156;8.220;2023-07-29T06:48:10;22.90;99.90
7658;DHT22;8462;53.156;8.220;2023-07-29T06:50:37;23.10;99.90
7658;DHT22;8462;53.156;8.220;2023-07-29T06:53:04;23.30;99.90
7658;DHT22;8462;53.156;8.220;2023-07-29T06:55:31;23.60;99.90
7658;DHT22;8462;53.156;8.220;2023-07-29T06:57:58;23.90;99.90
7658;DHT22;8462;53.156;8.220;2023-07-29T07:00:25;24.00;98.60
7658;DHT22;8462;53.156;8.220;2023-07-29T07:02:52;24.00;97.70
7658;DHT22;8462;53.156;8.220;2023-07-29T07:05:20;24.00;97.80
7658;DHT22;8462;53.156;8.220;2023-07-29T07:07:47;24.00;97.90
7658;DHT22;8462;53.156;8.220;2023-07-29T07:10:14;23.90;97.80
7658;DHT22;8462;53.156;8.220;2023-07-29T07:12:41;23.90;97.80
7658;DHT22;8462;53.156;8.220;2023-07-29T07:15:08;23.80;98.00
7658;DHT22;8462;53.156;8.220;2023-07-29T07:17:35;23.90;97.90
7658;DHT22;8462;53.156;8.220;2023-07-29T07:20:03;23.90;97.70
7658;DHT22;8462;53.156;8.220;2023-07-29T07:22:31;24.00;97.50
7658;DHT22;8462;53.156;8.220;2023-07-29T07:24:58;23.90;97.30
7658;DHT22;8462;53.156;8.220;2023-07-29T07:27:24;23.80;96.80
7658;DHT22;8462;53.156;8.220;2023-07-29T07:29:51;23.80;97.10
7658;DHT22;8462;53.156;8.220;2023-07-29T07:32:18;23.80;97.20
7658;DHT22;8462;53.156;8.220;2023-07-29T07:34:45;23.70;97.10
7658;DHT22;8462;53.156;8.220;2023-07-29T07:37:12;23.70;96.70
7658;DHT22;8462;53.156;8.220;2023-07-29T07:39:40;23.90;96.90
7658;DHT22;8462;53.156;8.220;2023-07-29T07:42:07;24.10;96.50
7658;DHT22;8462;53.156;8.220;2023-07-29T07:44:34;24.30;96.20
7658;DHT22;8462;53.156;8.220;2023-07-29T07:47:01;24.50;96.00
7658;DHT22;8462;53.156;8.220;2023-07-29T07:49:28;24.60;95.80
7658;DHT22;8462;53.156;8.220;2023-07-29T07:51:54;24.80;95.60
7658;DHT22;8462;53.156;8.220;2023-07-29T07:54:22;24.80;95.30
7658;DHT22;8462;53.156;8.220;2023-07-29T07:56:50;24.80;95.30
7658;DHT22;8462;53.156;8.220;2023-07-29T07:59:17;24.90;95.20
7658;DHT22;8462;53.156;8.220;2023-07-29T08:01:44;24.80;94.90
7658;DHT22;8462;53.156;8.220;2023-07-29T08:04:11;24.70;94.90
7658;DHT22;8462;53.156;8.220;2023-07-29T08:06:38;24.60;95.20
7658;DHT22;8462;53.156;8.220;2023-07-29T08:09:04;24.80;94.90
7658;DHT22;8462;53.156;8.220;2023-07-29T08:11:31;24.80;94.90
7658;DHT22;8462;53.156;8.220;2023-07-29T08:14:00;24.90;94.70
7658;DHT22;8462;53.156;8.220;2023-07-29T08:16:26;25.00;94.20
7658;DHT22;8462;53.156;8.220;2023-07-29T08:18:53;25.00;94.50
7658;DHT22;8462;53.156;8.220;2023-07-29T08:21:20;25.20;93.90
7658;DHT22;8462;53.156;8.220;2023-07-29T08:23:47;25.20;93.60
7658;DHT22;8462;53.156;8.220;2023-07-29T08:26:14;25.30;93.50
7658;DHT22;8462;53.156;8.220;2023-07-29T08:28:42;25.40;93.50
7658;DHT22;8462;53.156;8.220;2023-07-29T08:31:10;25.40;93.40
7658;DHT22;8462;53.156;8.220;2023-07-29T08:33:39;25.40;93.40
7658;DHT22;8462;53.156;8.220;2023-07-29T08:36:08;25.40;93.50
7658;DHT22;8462;53.156;8.220;2023-07-29T08:38:35;25.30;93.90
7658;DHT22;8462;53.156;8.220;2023-07-29T08:41:10;25.40;93.80
7658;DHT22;8462;53.156;8.220;2023-07-29T08:43:44;25.40;93.30
7658;DHT22;8462;53.156;8.220;2023-07-29T08:46:13;25.40;93.50
7658;DHT22;8462;53.156;8.220;2023-07-29T08:48:42;25.40;92.80
7658;DHT22;8462;53.156;8.220;2023-07-29T08:51:12;25.40;93.00
7658;DHT22;8462;53.156;8.220;2023-07-29T08:53:39;25.40;93.30
7658;DHT22;8462;53.156;8.220;2023-07-29T08:56:07;25.50;93.40
7658;DHT22;8462;53.156;8.220;2023-07-29T08:58:35;25.70;93.20
7658;DHT22;8462;53.156;8.220;2023-07-29T09:01:02;25.90;92.70
7658;DHT22;8462;53.156;8.220;2023-07-29T09:03:30;26.00;92.50
7658;DHT22;8462;53.156;8.220;2023-07-29T09:05:58;26.00;92.10
7658;DHT22;8462;53.156;8.220;2023-07-29T09:08:25;26.10;91.70
7658;DHT22;8462;53.156;8.220;2023-07-29T09:10:53;26.20;91.60
7658;DHT22;8462;53.156;8.220;2023-07-29T09:13:20;26.40;91.60
7658;DHT22;8462;53.156;8.220;2023-07-29T09:15:47;26.60;91.20
7658;DHT22;8462;53.156;8.220;2023-07-29T09:18:16;26.60;90.90
7658;DHT22;8462;53.156;8.220;2023-07-29T09:20:46;26.40;90.80
7658;DHT22;8462;53.156;8.220;2023-07-29T09:23:13;26.30;91.40
7658;DHT22;8462;53.156;8.220;2023-07-29T09:25:40;26.30;91.00
7658;DHT22;8462;53.156;8.220;2023-07-29T09:28:12;26.40;91.10
7658;DHT22;8462;53.156;8.220;2023-07-29T09:30:39;26.70;90.60
7658;DHT22;8462;53.156;8.220;2023-07-29T09:33:06;27.00;90.00
7658;DHT22;8462;53.156;8.220;2023-07-29T09:35:35;27.10;86.40
7658;DHT22;8462;53.156;8.220;2023-07-29T09:38:04;27.20;86.60
7658;DHT22;8462;53.156;8.220;2023-07-29T09:40:35;27.10;85.10
7658;DHT22;8462;53.156;8.220;2023-07-29T09:43:03;26.90;86.30
7658;DHT22;8462;53.156;8.220;2023-07-29T09:45:33;26.90;85.30
7658;DHT22;8462;53.156;8.220;2023-07-29T09:48:01;26.80;84.60
7658;DHT22;8462;53.156;8.220;2023-07-29T09:50:28;26.90;85.30
7658;DHT22;8462;53.156;8.220;2023-07-29T09:52:56;26.90;85.50
7658;DHT22;8462;53.156;8.220;2023-07-29T09:55:26;26.70;85.50
7658;DHT22;8462;53.156;8.220;2023-07-29T09:57:55;26.70;85.10
7658;DHT22;8462;53.156;8.220;2023-07-29T10:00:22;26.80;86.40
7658;DHT22;8462;53.156;8.220;2023-07-29T10:02:50;27.00;84.70
7658;DHT22;8462;53.156;8.220;2023-07-29T10:05:17;27.40;84.80
7658;DHT22;8462;53.156;8.220;2023-07-29T10:07:45;27.60;81.80
7658;DHT22;8462;53.156;8.220;2023-07-29T10:10:13;27.30;81.80
7658;DHT22;8462;53.156;8.220;2023-07-29T10:12:41;27.00;82.90
7658;DHT22;8462;53.156;8.220;2023-07-29T10:15:09;26.80;85.00
7658;DHT22;8462;53.156;8.220;2023-07-29T10:17:38;26.70;85.40
7658;DHT22;8462;53.156;8.220;2023-07-29T10:20:06;26.60;85.70
7658;DHT22;8462;53.156;8.220;2023-07-29T10:22:36;26.50;86.30
7658;DHT22;8462;53.156;8.220;2023-07-29T10:25:04;26.50;87.50
7658;DHT22;8462;53.156;8.220;2023-07-29T10:27:38;26.70;86.80
7658;DHT22;8462;53.156;8.220;2023-07-29T10:30:11;26.90;85.50
7658;DHT22;8462;53.156;8.220;2023-07-29T10:32:38;27.20;86.00
7658;DHT22;8462;53.156;8.220;2023-07-29T10:35:08;27.50;85.30
7658;DHT22;8462;53.156;8.220;2023-07-29T10:37:35;27.70;84.10
7658;DHT22;8462;53.156;8.220;2023-07-29T10:40:06;27.80;83.10
7658;DHT22;8462;53.156;8.220;2023-07-29T10:42:33;27.70;80.30
7658;DHT22;8462;53.156;8.220;2023-07-29T10:45:02;27.50;81.20
7658;DHT22;8462;53.156;8.220;2023-07-29T10:47:44;27.30;82.80
7658;DHT22;8462;53.156;8.220;2023-07-29T10:50:17;27.10;83.40
7658;DHT22;8462;53.156;8.220;2023-07-29T10:52:49;27.10;83.60
7658;DHT22;8462;53.156;8.220;2023-07-29T10:55:25;27.00;83.20
7658;DHT22;8462;53.156;8.220;2023-07-29T10:57:53;27.00;83.10
7658;DHT22;8462;53.156;8.220;2023-07-29T11:00:31;27.00;84.10
7658;DHT22;8462;53.156;8.220;2023-07-29T11:03:01;26.90;82.20
7658;DHT22;8462;53.156;8.220;2023-07-29T11:05:42;26.70;82.60
7658;DHT22;8462;53.156;8.220;2023-07-29T11:08:20;26.60;83.00
7658;DHT22;8462;53.156;8.220;2023-07-29T11:11:05;26.40;83.70
7658;DHT22;8462;53.156;8.220;2023-07-29T11:13:34;26.30;85.40
7658;DHT22;8462;53.156;8.220;2023-07-29T11:16:01;26.20;86.40
7658;DHT22;8462;53.156;8.220;2023-07-29T11:18:36;26.20;87.20
7658;DHT22;8462;53.156;8.220;2023-07-29T11:21:03;26.20;87.10
7658;DHT22;8462;53.156;8.220;2023-07-29T11:23:32;26.20;87.50
7658;DHT22;8462;53.156;8.220;2023-07-29T11:25:59;26.30;86.80
7658;DHT22;8462;53.156;8.220;2023-07-29T11:28:27;26.50;86.80
7658;DHT22;8462;53.156;8.220;2023-07-29T11:30:55;26.70;85.90
7658;DHT22;8462;53.156;8.220;2023-07-29T11:33:25;26.90;85.90
7658;DHT22;8462;53.156;8.220;2023-07-29T11:35:55;27.00;85.20
7658;DHT22;8462;53.156;8.220;2023-07-29T11:38:22;27.30;85.60
7658;DHT22;8462;53.156;8.220;2023-07-29T11:40:57;27.50;84.40
7658;DHT22;8462;53.156;8.220;2023-07-29T11:43:25;27.70;84.80
7658;DHT22;8462;53.156;8.220;2023-07-29T11:45:52;27.90;83.80
7658;DHT22;8462;53.156;8.220;2023-07-29T11:48:26;27.90;81.70
7658;DHT22;8462;53.156;8.220;2023-07-29T11:50:55;27.80;81.00
7658;DHT22;8462;53.156;8.220;2023-07-29T11:53:22;27.70;80.90
7658;DHT22;8462;53.156;8.220;2023-07-29T11:55:51;27.60;81.00
7658;DHT22;8462;53.156;8.220;2023-07-29T11:58:18;27.40;81.30
7658;DHT22;8462;53.156;8.220;2023-07-29T12:00:46;27.20;81.20
7658;DHT22;8462;53.156;8.220;2023-07-29T12:03:13;27.10;82.20
7658;DHT22;8462;53.156;8.220;2023-07-29T12:05:42;27.10;82.50
7658;DHT22;8462;53.156;8.220;2023-07-29T12:08:11;27.10;82.10
7658;DHT22;8462;53.156;8.220;2023-07-29T12:10:38;27.20;82.60
7658;DHT22;8462;53.156;8.220;2023-07-29T12:13:08;27.10;82.60
7658;DHT22;8462;53.156;8.220;2023-07-29T12:15:35;26.90;82.30
7658;DHT22;8462;53.156;8.220;2023-07-29T12:18:04;26.80;83.70
7658;DHT22;8462;53.156;8.220;2023-07-29T12:20:31;26.80;84.90
7658;DHT22;8462;53.156;8.220;2023-07-29T12:22:59;26.70;84.00
7658;DHT22;8462;53.156;8.220;2023-07-29T12:25:29;26.70;84.30
7658;DHT22;8462;53.156;8.220;2023-07-29T12:27:56;26.70;84.20
7658;DHT22;8462;53.156;8.220;2023-07-29T12:30:28;26.60;84.00
7658;DHT22;8462;53.156;8.220;2023-07-29T12:32:55;26.70;85.00
7658;DHT22;8462;53.156;8.220;2023-07-29T12:35:22;26.80;83.90
7658;DHT22;8462;53.156;8.220;2023-07-29T12:37:58;27.00;84.90
7658;DHT22;8462;53.156;8.220;2023-07-29T12:40:25;27.10;83.30
7658;DHT22;8462;53.156;8.220;2023-07-29T12:42:54;27.20;82.10
7658;DHT22;8462;53.156;8.220;2023-07-29T12:45:22;27.30;83.70
7658;DHT22;8462;53.156;8.220;2023-07-29T12:47:52;27.60;83.50
7658;DHT22;8462;53.156;8.220;2023-07-29T12:50:19;28.00;82.30
7658;DHT22;8462;53.156;8.220;2023-07-29T12:52:46;28.20;79.10
7658;DHT22;8462;53.156;8.220;2023-07-29T12:55:18;28.20;78.90
7658;DHT22;8462;53.156;8.220;2023-07-29T12:57:47;28.30;78.20
7658;DHT22;8462;53.156;8.220;2023-07-29T13:00:15;28.20;78.10
7658;DHT22;8462;53.156;8.220;2023-07-29T13:02:42;28.30;78.80
7658;DHT22;8462;53.156;8.220;2023-07-29T13:05:11;28.30;78.40
7658;DHT22;8462;53.156;8.220;2023-07-29T13:07:38;28.40;77.70
7658;DHT22;8462;53.156;8.220;2023-07-29T13:10:09;28.30;76.90
7658;DHT22;8462;53.156;8.220;2023-07-29T13:12:36;28.50;77.40
7658;DHT22;8462;53.156;8.220;2023-07-29T13:15:03;28.50;77.00
7658;DHT22;8462;53.156;8.220;2023-07-29T13:17:32;28.50;77.00
7658;DHT22;8462;53.156;8.220;2023-07-29T13:20:01;28.30;76.90
7658;DHT22;8462;53.156;8.220;2023-07-29T13:22:29;28.20;78.50
7658;DHT22;8462;53.156;8.220;2023-07-29T13:24:56;28.20;79.50
7658;DHT22;8462;53.156;8.220;2023-07-29T13:27:22;28.40;79.90
7658;DHT22;8462;53.156;8.220;2023-07-29T13:29:52;28.60;79.30
7658;DHT22;8462;53.156;8.220;2023-07-29T13:32:19;28.80;79.30
7658;DHT22;8462;53.156;8.220;2023-07-29T13:34:47;28.80;76.80
7658;DHT22;8462;53.156;8.220;2023-07-29T13:37:14;28.60;76.80
7658;DHT22;8462;53.156;8.220;2023-07-29T13:39:42;28.50;78.20
7658;DHT22;8462;53.156;8.220;2023-07-29T13:42:09;28.40;78.40
7658;DHT22;8462;53.156;8.220;2023-07-29T13:44:38;28.00;79.70
7658;DHT22;8462;53.156;8.220;2023-07-29T13:47:07;27.60;82.00
7658;DHT22;8462;53.156;8.220;2023-07-29T13:49:36;27.40;82.90
7658;DHT22;8462;53.156;8.220;2023-07-29T13:52:05;27.30;83.10
7658;DHT22;8462;53.156;8.220;2023-07-29T13:54:33;27.10;83.80
7658;DHT22;8462;53.156;8.220;2023-07-29T13:57:00;26.80;85.10
7658;DHT22;8462;53.156;8.220;2023-07-29T13:59:29;26.50;87.20
7658;DHT22;8462;53.156;8.220;2023-07-29T14:01:56;26.30;88.20
7658;DHT22;8462;53.156;8.220;2023-07-29T14:04:25;26.00;89.20
7658;DHT22;8462;53.156;8.220;2023-07-29T14:06:51;25.80;90.00
7658;DHT22;8462;53.156;8.220;2023-07-29T14:09:22;25.60;90.30
7658;DHT22;8462;53.156;8.220;2023-07-29T14:11:49;25.50;90.80
7658;DHT22;8462;53.156;8.220;2023-07-29T14:14:17;25.40;91.20
7658;DHT22;8462;53.156;8.220;2023-07-29T14:16:46;25.40;91.40
7658;DHT22;8462;53.156;8.220;2023-07-29T14:19:15;25.40;91.90
7658;DHT22;8462;53.156;8.220;2023-07-29T14:21:43;25.60;91.60
7658;DHT22;8462;53.156;8.220;2023-07-29T14:24:10;25.90;91.50
7658;DHT22;8462;53.156;8.220;2023-07-29T14:26:39;26.30;91.10
7658;DHT22;8462;53.156;8.220;2023-07-29T14:29:06;26.70;89.90
7658;DHT22;8462;53.156;8.220;2023-07-29T14:31:32;27.00;88.00
7658;DHT22;8462;53.156;8.220;2023-07-29T14:33:59;27.30;86.30
7658;DHT22;8462;53.156;8.220;2023-07-29T14:36:27;27.40;86.30
7658;DHT22;8462;53.156;8.220;2023-07-29T14:38:53;27.50;85.70
7658;DHT22;8462;53.156;8.220;2023-07-29T14:41:24;27.50;84.70
7658;DHT22;8462;53.156;8.220;2023-07-29T14:43:53;27.60;84.40
7658;DHT22;8462;53.156;8.220;2023-07-29T14:46:21;27.60;85.00
7658;DHT22;8462;53.156;8.220;2023-07-29T14:48:47;27.60;84.70
7658;DHT22;8462;53.156;8.220;2023-07-29T14:51:15;27.50;84.80
7658;DHT22;8462;53.156;8.220;2023-07-29T14:53:41;27.60;84.90
7658;DHT22;8462;53.156;8.220;2023-07-29T14:56:08;27.70;84.20
7658;DHT22;8462;53.156;8.220;2023-07-29T14:58:36;27.70;83.10
7658;DHT22;8462;53.156;8.220;2023-07-29T15:01:04;27.70;84.00
7658;DHT22;8462;53.156;8.220;2023-07-29T15:03:31;27.60;83.90
7658;DHT22;8462;53.156;8.220;2023-07-29T15:05:57;27.60;84.20
7658;DHT22;8462;53.156;8.220;2023-07-29T15:08:26;27.50;83.60
7658;DHT22;8462;53.156;8.220;2023-07-29T15:10:58;27.50;83.80
7658;DHT22;8462;53.156;8.220;2023-07-29T15:13:25;27.40;83.70
7658;DHT22;8462;53.156;8.220;2023-07-29T15:15:51;27.50;84.70
7658;DHT22;8462;53.156;8.220;2023-07-29T15:18:20;27.40;83.10
7658;DHT22;8462;53.156;8.220;2023-07-29T15:20:46;27.20;83.80
7658;DHT22;8462;53.156;8.220;2023-07-29T15:23:13;27.10;83.30
7658;DHT22;8462;53.156;8.220;2023-07-29T15:25:40;27.00;82.80
7658;DHT22;8462;53.156;8.220;2023-07-29T15:28:07;26.90;81.70
7658;DHT22;8462;53.156;8.220;2023-07-29T15:30:35;26.70;80.80
7658;DHT22;8462;53.156;8.220;2023-07-29T15:33:02;26.50;81.30
7658;DHT22;8462;53.156;8.220;2023-07-29T15:35:36;26.30;80.80
7658;DHT22;8462;53.156;8.220;2023-07-29T15:38:03;26.10;81.70
7658;DHT22;8462;53.156;8.220;2023-07-29T15:40:30;25.90;82.80
7658;DHT22;8462;53.156;8.220;2023-07-29T15:42:57;25.70;87.80
7658;DHT22;8462;53.156;8.220;2023-07-29T15:45:24;25.30;90.60
7658;DHT22;8462;53.156;8.220;2023-07-29T15:47:51;24.90;92.10
7658;DHT22;8462;53.156;8.220;2023-07-29T15:50:18;24.70;93.00
7658;DHT22;8462;53.156;8.220;2023-07-29T15:52:46;24.30;93.60
7658;DHT22;8462;53.156;8.220;2023-07-29T15:55:13;24.20;94.30
7658;DHT22;8462;53.156;8.220;2023-07-29T15:57:40;24.10;94.90
7658;DHT22;8462;53.156;8.220;2023-07-29T16:00:08;24.00;95.20
7658;DHT22;8462;53.156;8.220;2023-07-29T16:02:39;24.00;95.40
7658;DHT22;8462;53.156;8.220;2023-07-29T16:05:06;24.00;95.00
7658;DHT22;8462;53.156;8.220;2023-07-29T16:07:33;24.00;94.90
7658;DHT22;8462;53.156;8.220;2023-07-29T16:10:01;24.10;95.70